Ana Sayfa
METAR-TAF:

METAR-TAF

Havaalanları :

Yankton, Güney Dakota, Amerika Birleşik Devletleri

Enlem: 42-55N, Boylam: 097-23W, yükseklik: 398 m

Güncel hava durumu gözlemi

Rapor saat 08:56 UTC de 32 dakika önce yapıldı.
Rüzgar batı/kuzeybatıdan 17 kt ve 29 kt'a kadar ani rüzgarlar
Sıcaklık 13°C
Nem 94%
Basınç 1002 hPa
Görüş mesafesi: 16.1 km
600 ft yükseklikte az bulutlu
2400 ft yükseklikte parçalı çok bulutlu
10000 ft yükseklikte çok bulutlu
hafif yağmur

METAR: KYKN 240856Z AUTO 30017G29KT 10SM -RA FEW006 BKN024 OVC100 13/12 A2959 RMK AO2 PK WND 28029/0847 WSHFT 0840 LTG DSNT E TSE08B13E15B17E53 SLP025 P0015 60059 T01330122 56007

Saat: 04:28 (09:28 UTC)


TAF: eksik

4.000'den fazla havaalanı için hava durumu gözlemleri ve tahminleri (METAR ve TAF raporları).

Kullanılabilir istasyonlar harita üzerinde sarı ve kırmızı noktalarla gösterilir.

İstasyonun adını görmek için fareyi noktanın üzerinde gezdirin.

Sonrasında hava gözlem ve tahminlerini görmek için tıklayın.

Haritayı değiştirmek için: yaklaştırmak için siyah artı işaretli yeşil düğmeye ve uzaklaştırmak için de eksi işaretli düğmeye hızla tıklayın; bitişik haritalar için yeşil okları kullanın.


METAR-TAF: